sensor_id;sensor_type;location;lat;lon;timestamp;P1;durP1;ratioP1;P2;durP2;ratioP2
735;SDS011;352;48.626;9.238;2023-04-12T00:01:26;2.88;;;2.13;;
735;SDS011;352;48.626;9.238;2023-04-12T00:03:53;4.15;;;2.25;;
735;SDS011;352;48.626;9.238;2023-04-12T00:06:19;4.63;;;2.80;;
735;SDS011;352;48.626;9.238;2023-04-12T00:08:49;3.53;;;2.40;;
735;SDS011;352;48.626;9.238;2023-04-12T00:11:16;5.07;;;3.22;;
735;SDS011;352;48.626;9.238;2023-04-12T00:13:42;4.40;;;2.87;;
735;SDS011;352;48.626;9.238;2023-04-12T00:16:09;3.47;;;2.67;;
735;SDS011;352;48.626;9.238;2023-04-12T00:18:41;6.70;;;2.53;;
735;SDS011;352;48.626;9.238;2023-04-12T00:21:09;4.25;;;2.40;;
735;SDS011;352;48.626;9.238;2023-04-12T00:23:36;2.90;;;2.30;;
735;SDS011;352;48.626;9.238;2023-04-12T00:26:03;6.87;;;2.60;;
735;SDS011;352;48.626;9.238;2023-04-12T00:28:30;3.97;;;2.70;;
735;SDS011;352;48.626;9.238;2023-04-12T00:30:57;5.23;;;2.87;;
735;SDS011;352;48.626;9.238;2023-04-12T00:33:24;7.20;;;2.75;;
735;SDS011;352;48.626;9.238;2023-04-12T00:35:52;5.97;;;2.87;;
735;SDS011;352;48.626;9.238;2023-04-12T00:38:19;4.70;;;2.30;;
735;SDS011;352;48.626;9.238;2023-04-12T00:40:45;3.85;;;2.42;;
735;SDS011;352;48.626;9.238;2023-04-12T00:43:12;3.40;;;2.47;;
735;SDS011;352;48.626;9.238;2023-04-12T00:45:42;4.13;;;2.40;;
735;SDS011;352;48.626;9.238;2023-04-12T00:48:09;4.03;;;2.45;;
735;SDS011;352;48.626;9.238;2023-04-12T00:50:36;2.83;;;2.50;;
735;SDS011;352;48.626;9.238;2023-04-12T00:53:07;4.07;;;2.80;;
735;SDS011;352;48.626;9.238;2023-04-12T00:55:37;4.90;;;2.73;;
735;SDS011;352;48.626;9.238;2023-04-12T00:58:04;3.33;;;2.60;;
735;SDS011;352;48.626;9.238;2023-04-12T01:00:32;6.47;;;2.83;;
735;SDS011;352;48.626;9.238;2023-04-12T01:02:59;4.63;;;2.60;;
735;SDS011;352;48.626;9.238;2023-04-12T01:05:28;6.03;;;2.65;;
735;SDS011;352;48.626;9.238;2023-04-12T01:07:57;3.25;;;2.83;;
735;SDS011;352;48.626;9.238;2023-04-12T01:10:35;8.25;;;2.85;;
735;SDS011;352;48.626;9.238;2023-04-12T01:13:10;4.25;;;2.40;;
735;SDS011;352;48.626;9.238;2023-04-12T01:15:47;4.25;;;2.60;;
735;SDS011;352;48.626;9.238;2023-04-12T01:18:27;2.75;;;2.55;;
735;SDS011;352;48.626;9.238;2023-04-12T01:21:00;3.80;;;2.90;;
735;SDS011;352;48.626;9.238;2023-04-12T01:23:51;3.28;;;2.67;;
735;SDS011;352;48.626;9.238;2023-04-12T01:26:30;3.50;;;2.60;;
735;SDS011;352;48.626;9.238;2023-04-12T01:29:03;3.38;;;2.70;;
735;SDS011;352;48.626;9.238;2023-04-12T01:31:35;3.00;;;2.70;;
735;SDS011;352;48.626;9.238;2023-04-12T01:34:05;5.20;;;2.70;;
735;SDS011;352;48.626;9.238;2023-04-12T01:36:34;4.38;;;2.30;;
735;SDS011;352;48.626;9.238;2023-04-12T01:39:03;3.85;;;2.60;;
735;SDS011;352;48.626;9.238;2023-04-12T01:41:31;3.65;;;2.60;;
735;SDS011;352;48.626;9.238;2023-04-12T01:43:58;5.07;;;2.85;;
735;SDS011;352;48.626;9.238;2023-04-12T01:46:26;3.92;;;2.80;;
735;SDS011;352;48.626;9.238;2023-04-12T01:48:52;4.05;;;2.63;;
735;SDS011;352;48.626;9.238;2023-04-12T01:51:26;9.05;;;3.20;;
735;SDS011;352;48.626;9.238;2023-04-12T01:54:03;4.25;;;3.05;;
735;SDS011;352;48.626;9.238;2023-04-12T01:56:35;4.35;;;2.60;;
735;SDS011;352;48.626;9.238;2023-04-12T01:59:04;6.25;;;3.00;;
735;SDS011;352;48.626;9.238;2023-04-12T02:01:33;3.67;;;2.70;;
735;SDS011;352;48.626;9.238;2023-04-12T02:04:00;5.70;;;2.90;;
735;SDS011;352;48.626;9.238;2023-04-12T02:06:29;5.07;;;3.20;;
735;SDS011;352;48.626;9.238;2023-04-12T02:08:58;6.78;;;2.70;;
735;SDS011;352;48.626;9.238;2023-04-12T02:11:26;4.45;;;3.00;;
735;SDS011;352;48.626;9.238;2023-04-12T02:13:53;7.07;;;3.50;;
735;SDS011;352;48.626;9.238;2023-04-12T02:16:20;7.97;;;3.70;;
735;SDS011;352;48.626;9.238;2023-04-12T02:18:48;7.75;;;3.03;;
735;SDS011;352;48.626;9.238;2023-04-12T02:21:15;3.67;;;2.70;;
735;SDS011;352;48.626;9.238;2023-04-12T02:23:41;5.20;;;3.03;;
735;SDS011;352;48.626;9.238;2023-04-12T02:26:09;5.55;;;3.25;;
735;SDS011;352;48.626;9.238;2023-04-12T02:28:35;3.53;;;3.20;;
735;SDS011;352;48.626;9.238;2023-04-12T02:31:02;4.93;;;2.90;;
735;SDS011;352;48.626;9.238;2023-04-12T02:33:30;4.18;;;3.80;;
735;SDS011;352;48.626;9.238;2023-04-12T02:35:58;5.03;;;3.20;;
735;SDS011;352;48.626;9.238;2023-04-12T02:38:26;6.85;;;3.97;;
735;SDS011;352;48.626;9.238;2023-04-12T02:40:53;4.47;;;2.92;;
735;SDS011;352;48.626;9.238;2023-04-12T02:43:20;5.00;;;2.88;;
735;SDS011;352;48.626;9.238;2023-04-12T02:45:47;4.30;;;3.67;;
735;SDS011;352;48.626;9.238;2023-04-12T02:48:13;6.68;;;3.60;;
735;SDS011;352;48.626;9.238;2023-04-12T02:50:40;3.60;;;2.75;;
735;SDS011;352;48.626;9.238;2023-04-12T02:53:08;4.63;;;3.10;;
735;SDS011;352;48.626;9.238;2023-04-12T02:55:35;4.30;;;3.60;;
735;SDS011;352;48.626;9.238;2023-04-12T02:58:04;4.78;;;3.05;;
735;SDS011;352;48.626;9.238;2023-04-12T03:00:30;5.13;;;3.03;;
735;SDS011;352;48.626;9.238;2023-04-12T03:02:57;4.60;;;3.17;;
735;SDS011;352;48.626;9.238;2023-04-12T03:05:25;4.75;;;3.42;;
735;SDS011;352;48.626;9.238;2023-04-12T03:07:52;5.38;;;3.25;;
735;SDS011;352;48.626;9.238;2023-04-12T03:10:20;6.38;;;3.28;;
735;SDS011;352;48.626;9.238;2023-04-12T03:12:47;5.97;;;3.83;;
735;SDS011;352;48.626;9.238;2023-04-12T03:15:14;4.85;;;3.30;;
735;SDS011;352;48.626;9.238;2023-04-12T03:17:41;4.65;;;3.63;;
735;SDS011;352;48.626;9.238;2023-04-12T03:20:09;7.15;;;3.67;;
735;SDS011;352;48.626;9.238;2023-04-12T03:22:36;4.78;;;3.60;;
735;SDS011;352;48.626;9.238;2023-04-12T03:25:02;4.63;;;4.10;;
735;SDS011;352;48.626;9.238;2023-04-12T03:27:31;5.00;;;3.72;;
735;SDS011;352;48.626;9.238;2023-04-12T03:29:58;5.30;;;4.35;;
735;SDS011;352;48.626;9.238;2023-04-12T03:32:24;5.22;;;4.30;;
735;SDS011;352;48.626;9.238;2023-04-12T03:34:51;7.05;;;4.40;;
735;SDS011;352;48.626;9.238;2023-04-12T03:37:18;3.83;;;3.53;;
735;SDS011;352;48.626;9.238;2023-04-12T03:39:44;6.13;;;3.70;;
735;SDS011;352;48.626;9.238;2023-04-12T03:42:12;5.80;;;3.63;;
735;SDS011;352;48.626;9.238;2023-04-12T03:44:40;3.55;;;3.25;;
735;SDS011;352;48.626;9.238;2023-04-12T03:47:07;7.75;;;4.65;;
735;SDS011;352;48.626;9.238;2023-04-12T03:49:35;5.35;;;4.55;;
735;SDS011;352;48.626;9.238;2023-04-12T03:52:02;5.82;;;5.07;;
735;SDS011;352;48.626;9.238;2023-04-12T03:54:30;5.38;;;4.88;;
735;SDS011;352;48.626;9.238;2023-04-12T03:56:56;6.15;;;5.35;;
735;SDS011;352;48.626;9.238;2023-04-12T03:59:23;7.90;;;5.50;;
735;SDS011;352;48.626;9.238;2023-04-12T04:01:51;6.35;;;4.70;;
735;SDS011;352;48.626;9.238;2023-04-12T04:04:18;7.30;;;4.70;;
735;SDS011;352;48.626;9.238;2023-04-12T04:06:45;6.05;;;3.97;;
735;SDS011;352;48.626;9.238;2023-04-12T04:09:12;6.05;;;4.65;;
735;SDS011;352;48.626;9.238;2023-04-12T04:11:39;5.75;;;3.58;;
735;SDS011;352;48.626;9.238;2023-04-12T04:14:06;4.28;;;3.97;;
735;SDS011;352;48.626;9.238;2023-04-12T04:16:33;7.32;;;4.30;;
735;SDS011;352;48.626;9.238;2023-04-12T04:19:01;5.88;;;4.30;;
735;SDS011;352;48.626;9.238;2023-04-12T04:21:28;8.57;;;4.63;;
735;SDS011;352;48.626;9.238;2023-04-12T04:23:57;5.32;;;4.47;;
735;SDS011;352;48.626;9.238;2023-04-12T04:26:25;5.65;;;3.95;;
735;SDS011;352;48.626;9.238;2023-04-12T04:28:57;4.63;;;4.20;;
735;SDS011;352;48.626;9.238;2023-04-12T04:31:27;5.45;;;4.20;;
735;SDS011;352;48.626;9.238;2023-04-12T04:34:01;4.85;;;4.07;;
735;SDS011;352;48.626;9.238;2023-04-12T04:36:31;4.80;;;3.70;;
735;SDS011;352;48.626;9.238;2023-04-12T04:38:58;4.05;;;3.65;;
735;SDS011;352;48.626;9.238;2023-04-12T04:41:26;4.82;;;3.42;;
735;SDS011;352;48.626;9.238;2023-04-12T04:43:52;5.28;;;4.30;;
735;SDS011;352;48.626;9.238;2023-04-12T04:46:19;5.40;;;4.10;;
735;SDS011;352;48.626;9.238;2023-04-12T04:48:46;3.92;;;3.63;;
735;SDS011;352;48.626;9.238;2023-04-12T04:51:15;4.18;;;3.83;;
735;SDS011;352;48.626;9.238;2023-04-12T04:53:42;4.72;;;3.72;;
735;SDS011;352;48.626;9.238;2023-04-12T04:56:09;5.85;;;3.88;;
735;SDS011;352;48.626;9.238;2023-04-12T04:58:36;3.33;;;3.03;;
735;SDS011;352;48.626;9.238;2023-04-12T05:01:03;5.78;;;3.50;;
735;SDS011;352;48.626;9.238;2023-04-12T05:03:31;5.10;;;3.58;;
735;SDS011;352;48.626;9.238;2023-04-12T05:05:58;4.20;;;3.33;;
735;SDS011;352;48.626;9.238;2023-04-12T05:08:27;4.20;;;3.80;;
735;SDS011;352;48.626;9.238;2023-04-12T05:10:54;3.70;;;3.22;;
735;SDS011;352;48.626;9.238;2023-04-12T05:13:21;4.47;;;3.10;;
735;SDS011;352;48.626;9.238;2023-04-12T05:15:48;4.80;;;3.88;;
735;SDS011;352;48.626;9.238;2023-04-12T05:18:15;5.88;;;3.13;;
735;SDS011;352;48.626;9.238;2023-04-12T05:20:42;4.60;;;3.25;;
735;SDS011;352;48.626;9.238;2023-04-12T05:23:09;3.97;;;3.40;;
735;SDS011;352;48.626;9.238;2023-04-12T05:25:42;4.82;;;3.40;;
735;SDS011;352;48.626;9.238;2023-04-12T05:28:10;7.47;;;4.15;;
735;SDS011;352;48.626;9.238;2023-04-12T05:30:38;5.05;;;3.90;;
735;SDS011;352;48.626;9.238;2023-04-12T05:33:05;7.57;;;3.50;;
735;SDS011;352;48.626;9.238;2023-04-12T05:35:32;3.40;;;3.10;;
735;SDS011;352;48.626;9.238;2023-04-12T05:37:59;4.65;;;3.45;;
735;SDS011;352;48.626;9.238;2023-04-12T05:40:25;5.47;;;3.65;;
735;SDS011;352;48.626;9.238;2023-04-12T05:42:53;7.47;;;3.95;;
735;SDS011;352;48.626;9.238;2023-04-12T05:45:20;5.35;;;3.58;;
735;SDS011;352;48.626;9.238;2023-04-12T05:47:47;7.47;;;3.50;;
735;SDS011;352;48.626;9.238;2023-04-12T05:50:14;5.53;;;3.50;;
735;SDS011;352;48.626;9.238;2023-04-12T05:52:40;4.57;;;3.75;;
735;SDS011;352;48.626;9.238;2023-04-12T05:55:07;4.47;;;3.70;;
735;SDS011;352;48.626;9.238;2023-04-12T05:57:35;3.65;;;3.30;;
735;SDS011;352;48.626;9.238;2023-04-12T06:00:03;4.47;;;3.40;;
735;SDS011;352;48.626;9.238;2023-04-12T06:02:37;4.30;;;3.72;;
735;SDS011;352;48.626;9.238;2023-04-12T06:05:04;3.90;;;3.50;;
735;SDS011;352;48.626;9.238;2023-04-12T06:07:31;3.63;;;3.33;;
735;SDS011;352;48.626;9.238;2023-04-12T06:09:58;5.18;;;3.78;;
735;SDS011;352;48.626;9.238;2023-04-12T06:12:25;5.60;;;3.78;;
735;SDS011;352;48.626;9.238;2023-04-12T06:14:52;5.18;;;3.53;;
735;SDS011;352;48.626;9.238;2023-04-12T06:17:21;5.07;;;3.30;;
735;SDS011;352;48.626;9.238;2023-04-12T06:19:48;3.20;;;2.90;;
735;SDS011;352;48.626;9.238;2023-04-12T06:22:14;4.00;;;3.60;;
735;SDS011;352;48.626;9.238;2023-04-12T06:24:41;3.05;;;2.85;;
735;SDS011;352;48.626;9.238;2023-04-12T06:27:08;3.47;;;3.17;;
735;SDS011;352;48.626;9.238;2023-04-12T06:29:35;4.38;;;2.90;;
735;SDS011;352;48.626;9.238;2023-04-12T06:32:02;3.13;;;2.83;;
735;SDS011;352;48.626;9.238;2023-04-12T06:34:30;3.85;;;3.00;;
735;SDS011;352;48.626;9.238;2023-04-12T06:36:57;4.32;;;3.17;;
735;SDS011;352;48.626;9.238;2023-04-12T06:39:25;2.92;;;2.63;;
735;SDS011;352;48.626;9.238;2023-04-12T06:41:51;5.95;;;3.22;;
735;SDS011;352;48.626;9.238;2023-04-12T06:44:19;5.00;;;2.60;;
735;SDS011;352;48.626;9.238;2023-04-12T06:46:46;2.72;;;2.53;;
735;SDS011;352;48.626;9.238;2023-04-12T06:49:12;2.92;;;2.10;;
735;SDS011;352;48.626;9.238;2023-04-12T06:51:40;3.60;;;3.30;;
735;SDS011;352;48.626;9.238;2023-04-12T06:54:07;4.15;;;3.75;;
735;SDS011;352;48.626;9.238;2023-04-12T06:56:35;4.30;;;3.85;;
735;SDS011;352;48.626;9.238;2023-04-12T06:59:02;3.60;;;3.30;;
735;SDS011;352;48.626;9.238;2023-04-12T07:01:29;4.82;;;3.03;;
735;SDS011;352;48.626;9.238;2023-04-12T07:03:56;5.20;;;4.70;;
735;SDS011;352;48.626;9.238;2023-04-12T07:06:22;4.50;;;4.20;;
735;SDS011;352;48.626;9.238;2023-04-12T07:08:50;3.08;;;2.78;;
735;SDS011;352;48.626;9.238;2023-04-12T07:11:17;3.17;;;2.75;;
735;SDS011;352;48.626;9.238;2023-04-12T07:13:46;4.63;;;3.50;;
735;SDS011;352;48.626;9.238;2023-04-12T07:16:13;3.55;;;3.25;;
735;SDS011;352;48.626;9.238;2023-04-12T07:18:39;2.80;;;2.60;;
735;SDS011;352;48.626;9.238;2023-04-12T07:21:06;4.87;;;3.10;;
735;SDS011;352;48.626;9.238;2023-04-12T07:23:33;3.85;;;3.40;;
735;SDS011;352;48.626;9.238;2023-04-12T07:26:01;2.57;;;2.07;;
735;SDS011;352;48.626;9.238;2023-04-12T07:28:28;2.72;;;2.22;;
735;SDS011;352;48.626;9.238;2023-04-12T07:30:55;1.97;;;1.87;;
735;SDS011;352;48.626;9.238;2023-04-12T07:33:23;2.50;;;2.30;;
735;SDS011;352;48.626;9.238;2023-04-12T07:35:51;1.98;;;1.77;;
735;SDS011;352;48.626;9.238;2023-04-12T07:38:17;2.20;;;2.00;;
735;SDS011;352;48.626;9.238;2023-04-12T07:40:44;2.30;;;2.13;;
735;SDS011;352;48.626;9.238;2023-04-12T07:43:12;2.55;;;1.90;;
735;SDS011;352;48.626;9.238;2023-04-12T07:45:40;4.13;;;1.77;;
735;SDS011;352;48.626;9.238;2023-04-12T07:48:07;1.93;;;1.83;;
735;SDS011;352;48.626;9.238;2023-04-12T07:50:35;3.10;;;1.80;;
735;SDS011;352;48.626;9.238;2023-04-12T07:53:16;2.27;;;2.17;;
735;SDS011;352;48.626;9.238;2023-04-12T07:55:43;3.20;;;2.50;;
735;SDS011;352;48.626;9.238;2023-04-12T07:58:10;2.40;;;2.20;;
735;SDS011;352;48.626;9.238;2023-04-12T08:00:38;2.10;;;2.00;;
735;SDS011;352;48.626;9.238;2023-04-12T08:03:05;2.47;;;2.27;;
735;SDS011;352;48.626;9.238;2023-04-12T08:05:32;2.30;;;2.00;;
735;SDS011;352;48.626;9.238;2023-04-12T08:07:59;2.27;;;2.07;;
735;SDS011;352;48.626;9.238;2023-04-12T08:10:26;2.40;;;2.10;;
735;SDS011;352;48.626;9.238;2023-04-12T08:12:54;2.40;;;2.20;;
735;SDS011;352;48.626;9.238;2023-04-12T08:15:20;2.27;;;2.07;;
735;SDS011;352;48.626;9.238;2023-04-12T08:17:48;2.23;;;1.67;;
735;SDS011;352;48.626;9.238;2023-04-12T08:20:15;2.40;;;2.20;;
735;SDS011;352;48.626;9.238;2023-04-12T08:22:43;2.13;;;1.87;;
735;SDS011;352;48.626;9.238;2023-04-12T08:25:10;3.20;;;2.90;;
735;SDS011;352;48.626;9.238;2023-04-12T08:27:37;2.40;;;2.20;;
735;SDS011;352;48.626;9.238;2023-04-12T08:30:05;2.07;;;1.80;;
735;SDS011;352;48.626;9.238;2023-04-12T08:32:33;1.87;;;1.73;;
735;SDS011;352;48.626;9.238;2023-04-12T08:35:02;2.37;;;2.27;;
735;SDS011;352;48.626;9.238;2023-04-12T08:37:29;2.30;;;2.10;;
735;SDS011;352;48.626;9.238;2023-04-12T08:39:57;2.57;;;2.37;;
735;SDS011;352;48.626;9.238;2023-04-12T08:42:24;2.23;;;1.73;;
735;SDS011;352;48.626;9.238;2023-04-12T08:44:51;2.80;;;2.07;;
735;SDS011;352;48.626;9.238;2023-04-12T08:47:18;2.17;;;1.93;;
735;SDS011;352;48.626;9.238;2023-04-12T08:49:46;1.70;;;1.60;;
735;SDS011;352;48.626;9.238;2023-04-12T08:52:14;1.70;;;1.60;;
735;SDS011;352;48.626;9.238;2023-04-12T08:54:41;1.60;;;1.50;;
735;SDS011;352;48.626;9.238;2023-04-12T08:57:08;1.87;;;1.77;;
735;SDS011;352;48.626;9.238;2023-04-12T08:59:36;2.57;;;1.50;;
735;SDS011;352;48.626;9.238;2023-04-12T09:02:03;2.53;;;1.63;;
735;SDS011;352;48.626;9.238;2023-04-12T09:04:30;1.87;;;1.77;;
735;SDS011;352;48.626;9.238;2023-04-12T09:06:57;1.77;;;1.67;;
735;SDS011;352;48.626;9.238;2023-04-12T09:12:09;2.63;;;1.60;;
735;SDS011;352;48.626;9.238;2023-04-12T09:14:37;2.80;;;1.90;;
735;SDS011;352;48.626;9.238;2023-04-12T09:17:04;2.40;;;2.20;;
735;SDS011;352;48.626;9.238;2023-04-12T09:19:45;3.50;;;2.03;;
735;SDS011;352;48.626;9.238;2023-04-12T09:22:12;3.40;;;2.43;;
735;SDS011;352;48.626;9.238;2023-04-12T09:24:49;1.90;;;1.80;;
735;SDS011;352;48.626;9.238;2023-04-12T09:27:17;2.20;;;2.00;;
735;SDS011;352;48.626;9.238;2023-04-12T09:29:46;2.00;;;1.77;;
735;SDS011;352;48.626;9.238;2023-04-12T09:32:15;2.53;;;2.13;;
735;SDS011;352;48.626;9.238;2023-04-12T09:34:53;3.13;;;2.63;;
735;SDS011;352;48.626;9.238;2023-04-12T09:37:22;2.80;;;2.60;;
735;SDS011;352;48.626;9.238;2023-04-12T09:39:59;7.90;;;5.20;;
735;SDS011;352;48.626;9.238;2023-04-12T09:42:28;5.20;;;4.00;;
735;SDS011;352;48.626;9.238;2023-04-12T09:44:55;3.53;;;2.60;;
735;SDS011;352;48.626;9.238;2023-04-12T09:47:27;3.60;;;2.57;;
735;SDS011;352;48.626;9.238;2023-04-12T09:50:02;3.17;;;2.73;;
735;SDS011;352;48.626;9.238;2023-04-12T09:52:34;3.40;;;2.90;;
735;SDS011;352;48.626;9.238;2023-04-12T09:55:03;3.80;;;2.40;;
735;SDS011;352;48.626;9.238;2023-04-12T09:57:34;4.17;;;2.87;;
735;SDS011;352;48.626;9.238;2023-04-12T10:00:03;2.60;;;2.40;;
735;SDS011;352;48.626;9.238;2023-04-12T10:02:36;3.67;;;2.77;;
735;SDS011;352;48.626;9.238;2023-04-12T10:06:28;2.43;;;2.13;;
735;SDS011;352;48.626;9.238;2023-04-12T10:08:30;24.03;;;19.07;;
735;SDS011;352;48.626;9.238;2023-04-12T10:10:58;36.93;;;26.47;;
735;SDS011;352;48.626;9.238;2023-04-12T10:13:26;24.63;;;16.27;;
735;SDS011;352;48.626;9.238;2023-04-12T10:15:54;3.03;;;2.63;;
735;SDS011;352;48.626;9.238;2023-04-12T10:18:20;5.17;;;2.33;;
735;SDS011;352;48.626;9.238;2023-04-12T10:20:48;2.50;;;2.17;;
735;SDS011;352;48.626;9.238;2023-04-12T10:23:15;3.87;;;2.30;;
735;SDS011;352;48.626;9.238;2023-04-12T10:25:43;2.20;;;2.00;;
735;SDS011;352;48.626;9.238;2023-04-12T10:28:13;2.40;;;2.20;;
735;SDS011;352;48.626;9.238;2023-04-12T10:30:42;2.20;;;2.10;;
735;SDS011;352;48.626;9.238;2023-04-12T10:33:10;2.67;;;1.80;;
735;SDS011;352;48.626;9.238;2023-04-12T10:35:48;2.30;;;1.97;;
735;SDS011;352;48.626;9.238;2023-04-12T10:38:16;1.93;;;1.80;;
735;SDS011;352;48.626;9.238;2023-04-12T10:43:38;1.90;;;1.80;;
735;SDS011;352;48.626;9.238;2023-04-12T10:46:05;2.20;;;1.67;;
735;SDS011;352;48.626;9.238;2023-04-12T10:48:33;4.80;;;1.83;;
735;SDS011;352;48.626;9.238;2023-04-12T10:51:10;2.60;;;2.37;;
735;SDS011;352;48.626;9.238;2023-04-12T10:53:41;3.53;;;1.90;;
735;SDS011;352;48.626;9.238;2023-04-12T10:59:02;2.90;;;2.10;;
735;SDS011;352;48.626;9.238;2023-04-12T11:01:30;2.10;;;1.87;;
735;SDS011;352;48.626;9.238;2023-04-12T11:04:07;1.87;;;1.77;;
735;SDS011;352;48.626;9.238;2023-04-12T11:09:26;2.00;;;1.57;;
735;SDS011;352;48.626;9.238;2023-04-12T11:11:57;2.83;;;2.43;;
735;SDS011;352;48.626;9.238;2023-04-12T11:14:41;1.57;;;1.47;;
735;SDS011;352;48.626;9.238;2023-04-12T11:17:19;3.20;;;1.43;;
735;SDS011;352;48.626;9.238;2023-04-12T11:19:51;1.97;;;1.50;;
735;SDS011;352;48.626;9.238;2023-04-12T11:22:22;2.17;;;1.47;;
735;SDS011;352;48.626;9.238;2023-04-12T11:24:52;2.13;;;1.20;;
735;SDS011;352;48.626;9.238;2023-04-12T11:27:19;1.63;;;1.37;;
735;SDS011;352;48.626;9.238;2023-04-12T11:29:49;2.90;;;1.80;;
735;SDS011;352;48.626;9.238;2023-04-12T11:32:19;2.27;;;2.17;;
735;SDS011;352;48.626;9.238;2023-04-12T11:34:47;1.37;;;1.27;;
735;SDS011;352;48.626;9.238;2023-04-12T11:37:14;2.50;;;1.73;;
735;SDS011;352;48.626;9.238;2023-04-12T11:39:43;1.80;;;1.57;;
735;SDS011;352;48.626;9.238;2023-04-12T11:42:13;1.40;;;1.30;;
735;SDS011;352;48.626;9.238;2023-04-12T11:44:41;2.03;;;1.60;;
735;SDS011;352;48.626;9.238;2023-04-12T11:47:16;1.70;;;1.60;;
735;SDS011;352;48.626;9.238;2023-04-12T11:49:45;1.73;;;1.43;;
735;SDS011;352;48.626;9.238;2023-04-12T11:52:13;1.40;;;1.30;;
735;SDS011;352;48.626;9.238;2023-04-12T11:54:41;1.67;;;1.50;;
735;SDS011;352;48.626;9.238;2023-04-12T11:57:10;2.23;;;1.80;;
735;SDS011;352;48.626;9.238;2023-04-12T11:59:38;1.47;;;1.30;;
735;SDS011;352;48.626;9.238;2023-04-12T12:02:05;2.40;;;1.50;;
735;SDS011;352;48.626;9.238;2023-04-12T12:04:35;3.20;;;1.50;;
735;SDS011;352;48.626;9.238;2023-04-12T12:07:02;2.03;;;1.40;;
735;SDS011;352;48.626;9.238;2023-04-12T12:09:30;2.47;;;1.90;;
735;SDS011;352;48.626;9.238;2023-04-12T12:11:57;1.77;;;1.50;;
735;SDS011;352;48.626;9.238;2023-04-12T12:14:25;1.30;;;1.20;;
735;SDS011;352;48.626;9.238;2023-04-12T12:16:52;2.47;;;1.50;;
735;SDS011;352;48.626;9.238;2023-04-12T12:19:27;1.30;;;1.20;;
735;SDS011;352;48.626;9.238;2023-04-12T12:22:05;2.20;;;1.80;;
735;SDS011;352;48.626;9.238;2023-04-12T12:24:35;1.77;;;1.20;;
735;SDS011;352;48.626;9.238;2023-04-12T12:27:03;1.40;;;1.30;;
735;SDS011;352;48.626;9.238;2023-04-12T12:29:36;1.50;;;1.40;;
735;SDS011;352;48.626;9.238;2023-04-12T12:32:08;1.50;;;1.40;;
735;SDS011;352;48.626;9.238;2023-04-12T12:34:36;3.47;;;3.20;;
735;SDS011;352;48.626;9.238;2023-04-12T12:37:07;1.67;;;1.57;;
735;SDS011;352;48.626;9.238;2023-04-12T12:39:37;1.47;;;1.37;;
735;SDS011;352;48.626;9.238;2023-04-12T12:42:04;1.20;;;1.10;;
735;SDS011;352;48.626;9.238;2023-04-12T12:44:31;1.50;;;1.30;;
735;SDS011;352;48.626;9.238;2023-04-12T12:46:58;1.53;;;1.20;;
735;SDS011;352;48.626;9.238;2023-04-12T12:49:26;1.50;;;1.40;;
735;SDS011;352;48.626;9.238;2023-04-12T12:51:53;1.50;;;1.40;;
735;SDS011;352;48.626;9.238;2023-04-12T12:54:21;1.90;;;1.33;;
735;SDS011;352;48.626;9.238;2023-04-12T12:56:48;1.90;;;1.80;;
735;SDS011;352;48.626;9.238;2023-04-12T12:59:15;1.60;;;1.40;;
735;SDS011;352;48.626;9.238;2023-04-12T13:01:41;1.83;;;1.60;;
735;SDS011;352;48.626;9.238;2023-04-12T13:04:08;1.70;;;1.60;;
735;SDS011;352;48.626;9.238;2023-04-12T13:06:35;1.60;;;1.50;;
735;SDS011;352;48.626;9.238;2023-04-12T13:09:03;1.70;;;1.60;;
735;SDS011;352;48.626;9.238;2023-04-12T13:11:31;2.53;;;1.40;;
735;SDS011;352;48.626;9.238;2023-04-12T13:13:58;1.90;;;1.80;;
735;SDS011;352;48.626;9.238;2023-04-12T13:16:24;1.83;;;1.50;;
735;SDS011;352;48.626;9.238;2023-04-12T13:18:51;1.60;;;1.50;;
735;SDS011;352;48.626;9.238;2023-04-12T13:21:18;1.73;;;1.57;;
735;SDS011;352;48.626;9.238;2023-04-12T13:23:45;4.40;;;2.20;;
735;SDS011;352;48.626;9.238;2023-04-12T13:26:11;1.50;;;1.40;;
735;SDS011;352;48.626;9.238;2023-04-12T13:28:39;1.53;;;1.43;;
735;SDS011;352;48.626;9.238;2023-04-12T13:31:06;1.43;;;1.33;;
735;SDS011;352;48.626;9.238;2023-04-12T13:33:33;1.53;;;1.43;;
735;SDS011;352;48.626;9.238;2023-04-12T13:35:59;1.63;;;1.53;;
735;SDS011;352;48.626;9.238;2023-04-12T13:38:26;2.47;;;1.70;;
735;SDS011;352;48.626;9.238;2023-04-12T13:40:53;2.17;;;1.60;;
735;SDS011;352;48.626;9.238;2023-04-12T13:43:20;1.50;;;1.40;;
735;SDS011;352;48.626;9.238;2023-04-12T13:45:48;1.67;;;1.57;;
735;SDS011;352;48.626;9.238;2023-04-12T13:48:15;2.07;;;1.40;;
735;SDS011;352;48.626;9.238;2023-04-12T13:50:43;1.83;;;1.43;;
735;SDS011;352;48.626;9.238;2023-04-12T13:53:10;1.57;;;1.40;;
735;SDS011;352;48.626;9.238;2023-04-12T13:55:36;1.33;;;1.30;;
735;SDS011;352;48.626;9.238;2023-04-12T13:58:03;1.63;;;1.53;;
735;SDS011;352;48.626;9.238;2023-04-12T14:00:30;1.40;;;1.30;;
735;SDS011;352;48.626;9.238;2023-04-12T14:02:58;1.20;;;1.10;;
735;SDS011;352;48.626;9.238;2023-04-12T14:05:25;1.50;;;1.40;;
735;SDS011;352;48.626;9.238;2023-04-12T14:07:51;1.40;;;1.30;;
735;SDS011;352;48.626;9.238;2023-04-12T14:10:19;1.37;;;1.23;;
735;SDS011;352;48.626;9.238;2023-04-12T14:12:46;1.40;;;1.30;;
735;SDS011;352;48.626;9.238;2023-04-12T14:15:13;1.47;;;1.37;;
735;SDS011;352;48.626;9.238;2023-04-12T14:17:40;2.00;;;1.90;;
735;SDS011;352;48.626;9.238;2023-04-12T14:20:09;2.03;;;1.43;;
735;SDS011;352;48.626;9.238;2023-04-12T14:22:36;1.90;;;1.80;;
735;SDS011;352;48.626;9.238;2023-04-12T14:25:03;1.73;;;1.63;;
735;SDS011;352;48.626;9.238;2023-04-12T14:27:31;2.07;;;1.70;;
735;SDS011;352;48.626;9.238;2023-04-12T14:29:59;1.53;;;1.53;;
735;SDS011;352;48.626;9.238;2023-04-12T14:32:26;2.17;;;2.07;;
735;SDS011;352;48.626;9.238;2023-04-12T14:34:52;1.93;;;1.70;;
735;SDS011;352;48.626;9.238;2023-04-12T14:37:21;1.80;;;1.70;;
735;SDS011;352;48.626;9.238;2023-04-12T14:39:47;1.50;;;1.50;;
735;SDS011;352;48.626;9.238;2023-04-12T14:42:15;1.73;;;1.63;;
735;SDS011;352;48.626;9.238;2023-04-12T14:44:41;1.60;;;1.50;;
735;SDS011;352;48.626;9.238;2023-04-12T14:47:08;2.80;;;1.50;;
735;SDS011;352;48.626;9.238;2023-04-12T14:49:35;1.87;;;1.70;;
735;SDS011;352;48.626;9.238;2023-04-12T14:52:02;1.83;;;1.50;;
735;SDS011;352;48.626;9.238;2023-04-12T14:54:32;1.53;;;1.27;;
735;SDS011;352;48.626;9.238;2023-04-12T14:56:59;3.60;;;2.20;;
735;SDS011;352;48.626;9.238;2023-04-12T14:59:26;1.67;;;1.40;;
735;SDS011;352;48.626;9.238;2023-04-12T15:01:52;1.30;;;1.30;;
735;SDS011;352;48.626;9.238;2023-04-12T15:04:19;1.70;;;1.60;;
735;SDS011;352;48.626;9.238;2023-04-12T15:06:46;1.53;;;1.43;;
735;SDS011;352;48.626;9.238;2023-04-12T15:09:13;1.80;;;1.70;;
735;SDS011;352;48.626;9.238;2023-04-12T15:11:43;1.80;;;1.70;;
735;SDS011;352;48.626;9.238;2023-04-12T15:14:10;1.97;;;1.87;;
735;SDS011;352;48.626;9.238;2023-04-12T15:16:42;1.90;;;1.80;;
735;SDS011;352;48.626;9.238;2023-04-12T15:19:10;1.70;;;1.60;;
735;SDS011;352;48.626;9.238;2023-04-12T15:21:36;1.60;;;1.50;;
735;SDS011;352;48.626;9.238;2023-04-12T15:24:03;1.67;;;1.57;;
735;SDS011;352;48.626;9.238;2023-04-12T15:26:30;1.90;;;1.60;;
735;SDS011;352;48.626;9.238;2023-04-12T15:29:00;1.67;;;1.57;;
735;SDS011;352;48.626;9.238;2023-04-12T15:31:26;1.90;;;1.80;;
735;SDS011;352;48.626;9.238;2023-04-12T15:33:53;1.80;;;1.70;;
735;SDS011;352;48.626;9.238;2023-04-12T15:36:21;1.73;;;1.30;;
735;SDS011;352;48.626;9.238;2023-04-12T15:38:57;1.10;;;1.10;;
735;SDS011;352;48.626;9.238;2023-04-12T15:41:24;1.00;;;1.00;;
735;SDS011;352;48.626;9.238;2023-04-12T15:43:50;1.00;;;1.00;;
735;SDS011;352;48.626;9.238;2023-04-12T15:46:19;1.20;;;1.10;;
735;SDS011;352;48.626;9.238;2023-04-12T15:48:46;1.00;;;1.00;;
735;SDS011;352;48.626;9.238;2023-04-12T15:51:13;1.17;;;1.10;;
735;SDS011;352;48.626;9.238;2023-04-12T15:53:39;1.20;;;1.10;;
735;SDS011;352;48.626;9.238;2023-04-12T15:56:08;0.90;;;0.90;;
735;SDS011;352;48.626;9.238;2023-04-12T15:58:37;0.90;;;0.90;;
735;SDS011;352;48.626;9.238;2023-04-12T16:01:04;1.40;;;1.30;;
735;SDS011;352;48.626;9.238;2023-04-12T16:03:33;1.10;;;1.10;;